Flight Track Log - Related Links

Times and Time Zones

All times are in EDT time to prevent confusion due to time zone crossing. See the SWA864 flight status page for this flight to view local times or setup timezone preferences in your user account.

Time Position Orientation Groundspeed Altitude Reporting Facility
EDT Latitude Longitude Course Direction KTS MPH feet Rate Location/Type
Sat 10:25:01 AM 41.7667 -87.7833 264° West 151 174 2,100  Level Chicago TRACON
Sat 10:26:01 AM 41.7667 -87.8500 270° West 214 246 3,900 1,125 Climbing Chicago TRACON
Sat 10:26:37 AM 41.7611 -87.9017 262° West 217 250 3,900 367 Level Chicago Center
Sat 10:27:39 AM 41.7578 -87.9883 267° West 230 265 4,500 2,195 Climbing Chicago Center
Sat 10:28:40 AM 41.7533 -88.0775 266° West 239 275 8,400 3,512 Climbing Chicago Center
Sat 10:29:42 AM 41.7597 -88.1675 275° West 250 288 11,700 2,341 Climbing Chicago Center
Sat 10:30:00 AM 41.7357 -88.4698 264° West  Level FlightAware Approximate
Sat 10:30:43 AM 41.7717 -88.2714 279° West 284 327 13,200  Level Chicago Center
Sat 10:31:45 AM 41.7894 -88.4153 279° West 326 375 16,700 3,122 Climbing Chicago Center
Sat 10:32:46 AM 41.8058 -88.5422 280° West 343 395 19,600 2,683 Climbing Chicago Center
Sat 10:33:48 AM 41.8242 -88.6717 281° West 354 407 22,200 2,488 Climbing Chicago Center
Sat 10:34:49 AM 41.8400 -88.8064 279° West 365 420 24,700 2,244 Climbing Chicago Center
Sat 10:35:51 AM 41.8492 -88.9425 275° West 370 426 26,800 1,935 Climbing Chicago Center
Sat 10:36:53 AM 41.8361 -89.0814 263° West 378 435 28,700 2,293 Climbing Chicago Center
Sat 10:37:54 AM 41.8222 -89.2458 264° West 376 433 31,500 2,274 Climbing Chicago Center
Sat 10:38:57 AM 41.8103 -89.3781 263° West 363 418 33,400 1,220 Climbing Chicago Center
Sat 10:39:57 AM 41.7981 -89.5094 263° West 360 414 34,000 295 Climbing Chicago Center
Sat 10:40:59 AM 41.7872 -89.6292 263° West 359 413 34,000  Level Chicago Center
Sat 10:42:00 AM 41.7717 -89.7875 263° West 360 414 34,000  Level Chicago Center
Sat 10:43:02 AM 41.7592 -89.9200 263° West 361 415 34,000 585 Level Chicago Center
Sat 10:44:03 AM 41.7464 -90.0511 263° West 358 412 35,200 1,073 Climbing Chicago Center
Sat 10:45:05 AM 41.7328 -90.1858 262° West 367 422 36,200 919 Climbing Chicago Center
Sat 10:46:07 AM 41.7181 -90.3275 262° West 385 443 37,100 683 Climbing Chicago Center
Sat 10:47:08 AM 41.7042 -90.4681 263° West 384 442 37,600 439 Climbing Chicago Center
Sat 10:48:10 AM 41.6889 -90.6142 262° West 396 456 38,000 195 Climbing Chicago Center
Sat 10:49:11 AM 41.6744 -90.7622 263° West 397 457 38,000  Level Chicago Center
Sat 10:50:13 AM 41.6558 -90.9336 262° West 392 451 38,000  Level Chicago Center
Sat 10:51:15 AM 41.6411 -91.0769 262° West 392 451 38,000  Level Chicago Center
Sat 10:52:16 AM 41.6250 -91.2194 261° West 390 449 38,000  Level Chicago Center
Sat 10:53:18 AM 41.6106 -91.3622 262° West 389 448 38,000  Level Chicago Center
Sat 10:54:19 AM 41.5950 -91.5044 262° West 389 448 38,000  Level Chicago Center
Sat 10:55:21 AM 41.5786 -91.6475 261° West 389 448 38,000  Level Chicago Center
Sat 10:56:23 AM 41.5589 -91.8142 261° West 385 443 38,000  Level Chicago Center
Sat 10:57:24 AM 41.5425 -91.9553 261° West 385 443 38,000  Level Chicago Center
Sat 10:58:26 AM 41.5269 -92.0975 262° West 388 447 38,000  Level Chicago Center
Sat 10:59:27 AM 41.5097 -92.2406 261° West 390 449 38,000  Level Chicago Center
Sat 11:00:29 AM 41.4914 -92.3986 261° West 393 452 38,000  Level Chicago Center
Sat 11:01:31 AM 41.4744 -92.5392 261° West 389 448 38,000  Level Chicago Center
Sat 11:02:26 AM 41.4603 -92.6553 261° West 396 456 38,000  Level Minneapolis Center
Sat 11:03:39 AM 41.4403 -92.8261 261° West 394 453 38,000  Level Minneapolis Center
Sat 11:04:41 AM 41.4178 -92.9967 260° West 393 452 38,000  Level Minneapolis Center
Sat 11:05:42 AM 41.4003 -93.1400 261° West 394 453 38,000  Level Minneapolis Center
Sat 11:06:43 AM 41.3828 -93.2825 261° West 394 453 38,000  Level Minneapolis Center
Sat 11:07:45 AM 41.3639 -93.4244 260° West 394 453 38,000  Level Minneapolis Center
Sat 11:08:46 AM 41.3458 -93.5656 260° West 392 451 38,000  Level Minneapolis Center
Sat 11:09:47 AM 41.3242 -93.7361 260° West 393 452 38,000  Level Minneapolis Center
Sat 11:10:49 AM 41.3044 -93.8806 260° West 399 459 38,000  Level Minneapolis Center
Sat 11:11:50 AM 41.2856 -94.0250 260° West 400 460 38,000  Level Minneapolis Center
Sat 11:12:51 AM 41.2656 -94.1697 260° West 402 463 38,000  Level Minneapolis Center
Sat 11:13:52 AM 41.2450 -94.3325 261° West 400 460 38,000  Level Minneapolis Center
Sat 11:14:54 AM 41.2244 -94.4794 260° West 402 463 38,000  Level Minneapolis Center
Sat 11:15:55 AM 41.2044 -94.6239 260° West 400 460 38,000  Level Minneapolis Center
Sat 11:16:56 AM 41.1836 -94.7689 259° West 399 459 38,000  Level Minneapolis Center
Sat 11:17:57 AM 41.1625 -94.9150 259° West 402 463 38,000  Level Minneapolis Center
Sat 11:18:59 AM 41.1414 -95.0600 259° West 401 461 38,000  Level Minneapolis Center
Sat 11:20:00 AM 41.1247 -95.1764 259° West 400 460 38,000  Level Minneapolis Center
Sat 11:21:01 AM 41.0992 -95.3517 259° West 401 461 38,000  Level Minneapolis Center
Sat 11:22:03 AM 41.0778 -95.5000 259° West 404 465 38,000  Level Minneapolis Center
Sat 11:23:04 AM 41.0547 -95.6489 258° West 408 470 38,000  Level Minneapolis Center
Sat 11:24:05 AM 41.0317 -95.7964 258° West 406 467 38,000  Level Minneapolis Center
Sat 11:25:07 AM 41.0111 -95.9433 260° West 403 464 38,000  Level Minneapolis Center
Sat 11:26:08 AM 40.9892 -96.0892 259° West 402 463 38,000  Level Minneapolis Center
Sat 11:27:09 AM 40.9611 -96.2647 258° West 403 464 38,000  Level Minneapolis Center
Sat 11:28:11 AM 40.9392 -96.4119 259° West 405 466 38,000  Level Minneapolis Center
Sat 11:29:12 AM 40.9156 -96.5586 258° West 406 467 38,000  Level Minneapolis Center
Sat 11:30:13 AM 40.8925 -96.7039 258° West 404 465 38,000  Level Minneapolis Center
Sat 11:31:15 AM 40.8689 -96.8478 258° West 402 463 38,000  Level Minneapolis Center
Sat 11:32:16 AM 40.8464 -96.9922 258° West 401 461 38,000  Level Minneapolis Center
Sat 11:33:17 AM 40.8233 -97.1344 258° West 398 458 38,000  Level Minneapolis Center
Sat 11:34:19 AM 40.8003 -97.2750 258° West 394 453 38,000  Level Minneapolis Center
Sat 11:35:20 AM 40.7742 -97.4358 258° West 391 450 38,000  Level Minneapolis Center
Sat 11:36:22 AM 40.7503 -97.5744 257° West 387 445 38,000  Level Minneapolis Center
Sat 11:37:23 AM 40.7267 -97.7133 257° West 387 445 38,000  Level Minneapolis Center
Sat 11:38:24 AM 40.7036 -97.8525 258° West 387 445 38,000  Level Minneapolis Center
Sat 11:39:26 AM 40.6800 -97.9900 257° West 385 443 38,000  Level Minneapolis Center
Sat 11:40:27 AM 40.6569 -98.1261 257° West 382 440 38,000  Level Minneapolis Center
Sat 11:41:29 AM 40.6339 -98.2617 257° West 378 435 38,000  Level Minneapolis Center
Sat 11:42:30 AM 40.6103 -98.3961 257° West 377 434 38,000  Level Minneapolis Center
Sat 11:43:31 AM 40.6128 -98.5350 271° West 379 436 38,000  Level Minneapolis Center
Sat 11:44:45 AM 40.6267 -98.6722 278° West 378 435 38,000  Level Minneapolis Center
Sat 11:45:46 AM 40.6406 -98.8383 276° West 378 435 38,000  Level Minneapolis Center
Sat 11:46:48 AM 40.6531 -98.9772 277° West 378 435 38,000  Level Minneapolis Center
Sat 11:47:49 AM 40.6678 -99.1442 277° West 379 436 38,000  Level Minneapolis Center
Sat 11:48:51 AM 40.6792 -99.2839 276° West 381 438 38,000  Level Minneapolis Center
Sat 11:49:59 AM 40.6903 -99.4247 276° West 383 441 38,000  Level Denver Center
Sat 11:51:01 AM 40.7025 -99.5653 277° West 383 441 38,000  Level Denver Center
Sat 11:52:03 AM 40.7150 -99.7339 276° West 383 441 38,000  Level Denver Center
Sat 11:53:05 AM 40.7264 -99.8711 276° West 385 443 38,000  Level Denver Center
Sat 11:54:07 AM 40.7372 -100.0072 276° West 390 449 38,000  Level Denver Center
Sat 11:55:09 AM 40.7497 -100.1658 276° West 392 451 38,000  Level Denver Center
Sat 11:56:11 AM 40.7600 -100.3014 276° West 389 448 38,000  Level Denver Center
Sat 11:57:13 AM 40.7722 -100.4608 276° West 392 451 38,000  Level Denver Center
Sat 11:58:15 AM 40.7828 -100.5986 276° West 392 451 38,000  Level Denver Center
Sat 11:59:17 AM 40.7700 -100.7425 263° West 411 473 38,000  Level Denver Center
Sat 12:00:19 PM 40.7447 -100.9089 259° West 405 466 38,000  Level Denver Center
Sat 12:01:21 PM 40.7225 -101.0481 258° West 406 467 38,000  Level Denver Center
Sat 12:02:22 PM 40.6939 -101.2119 257° West 409 471 38,000  Level Denver Center
Sat 12:03:24 PM 40.6697 -101.3531 257° West 412 474 38,000 -339 Level Denver Center
Sat 12:04:26 PM 40.6450 -101.4933 257° West 411 473 37,300 -823 Descending Denver Center
Sat 12:05:28 PM 40.6142 -101.6600 256° West 418 481 36,300 -919 Descending Denver Center
Sat 12:06:30 PM 40.5892 -101.8047 257° West 424 488 35,400 -968 Descending Denver Center
Sat 12:07:32 PM 40.5592 -101.9722 257° West 423 487 34,300 -677 Descending Denver Center
Sat 12:08:34 PM 40.5317 -102.1183 256° West 430 495 34,000 -146 Descending Denver Center
Sat 12:09:35 PM 40.5011 -102.2872 257° West 427 491 34,000  Level Denver Center
Sat 12:10:37 PM 40.4742 -102.4336 256° West 430 495 34,000  Level Denver Center
Sat 12:11:39 PM 40.4417 -102.6036 256° West 431 496 34,000 -242 Level Denver Center
Sat 12:12:41 PM 40.4147 -102.7494 256° West 431 496 33,500 -1,597 Descending Denver Center
Sat 12:13:43 PM 40.3814 -102.9189 256° West 431 496 30,700 -2,371 Descending Denver Center
Sat 12:14:45 PM 40.3561 -103.0589 257° West 419 482 28,600 -1,984 Descending Denver Center
Sat 12:15:47 PM 40.3292 -103.1950 255° West 407 468 26,600 -2,081 Descending Denver Center
Sat 12:16:49 PM 40.2983 -103.3547 256° West 406 467 24,300 -2,146 Descending Denver Center
Sat 12:17:50 PM 40.2708 -103.4931 255° West 394 453 22,200 -2,000 Descending Denver Center
Sat 12:18:52 PM 40.2467 -103.6181 256° West 380 437 20,200 -1,935 Descending Denver Center
Sat 12:19:54 PM 40.2194 -103.7589 256° West 366 421 18,200 -1,210 Descending Denver Center
Sat 12:20:56 PM 40.2022 -103.8819 260° West 310 357 17,700 -774 Descending Denver Center
Sat 12:21:58 PM 40.2133 -103.9933 277° West 310 357 16,600 -1,306 Descending Denver Center
Sat 12:23:00 PM 40.2231 -104.1022 277° West 305 351 15,000 -1,210 Descending Denver Center
Sat 12:24:02 PM 40.2350 -104.2114 278° West 287 330 14,100 -1,113 Descending Denver Center
Sat 12:25:04 PM 40.2417 -104.2981 276° West 249 287 12,700 -1,355 Descending Denver Center
Sat 12:26:06 PM 40.2511 -104.3919 278° West 243 280 11,300 -1,161 Descending Denver Center
Sat 12:27:08 PM 40.2478 -104.4781 267° West 243 280 10,300 -968 Descending Denver Center
Sat 12:28:10 PM 40.2200 -104.5631 247° West 236 272 9,300 -581 Descending Denver Center
Sat 12:29:12 PM 40.1778 -104.6200 226° Southwest 231 266 9,100 -97 Descending Denver Center
Sat 12:30:14 PM 40.1169 -104.6644 209° Southwest 232 267 9,100 -484 Level Denver Center
Sat 12:31:16 PM 40.0558 -104.6789 190° South 228 262 8,100 -871 Descending Denver Center
Sat 12:32:18 PM 39.9958 -104.6847 184° South 219 252 7,300 -823 Descending Denver Center
Sat 12:33:20 PM 39.9444 -104.6864 181° South 178 205 6,400 -823 Descending Denver Center
Sat 12:34:22 PM 39.9036 -104.6869 181° South 151 174 5,600 -774 Descending Denver Center
Sat 12:36:00 PM 39.8617 -104.6732 North  Level Estimated
Sat 12:43:00 PM 39.8617 -104.6732 North  Level Estimated
Sat 12:44:00 PM 39.8617 -104.6732 North  Level Estimated

Login

Don't have an account? Register now (free) for customized features, flight alerts, and more!